createdAt,value
2023-03-25T01:18:49.090Z,72.48
2023-03-25T01:21:19.782Z,72.05
2023-03-25T01:26:36.181Z,71.83
2023-03-25T01:29:08.316Z,71.67
2023-03-25T01:31:38.545Z,71.19
2023-03-25T01:34:08.844Z,70.99
2023-03-25T01:36:42.430Z,70.70
2023-03-25T01:39:13.464Z,70.61
2023-03-25T01:41:49.735Z,70.48
2023-03-25T01:44:26.872Z,70.34
2023-03-25T01:46:58.682Z,70.17
2023-03-25T01:49:35.477Z,70.15
2023-03-25T01:52:09.870Z,70.21
2023-03-25T01:54:41.593Z,70.11
2023-03-25T01:57:30.727Z,69.84
2023-03-25T02:00:01.130Z,69.69
2023-03-25T02:02:38.936Z,69.85
2023-03-25T02:05:38.701Z,69.97
2023-03-25T02:11:32.443Z,70.16
2023-03-25T02:14:07.586Z,70.64
2023-03-25T02:16:40.477Z,70.66
2023-03-25T02:19:35.485Z,70.38
2023-03-25T02:22:17.171Z,69.97
2023-03-25T02:25:06.710Z,69.82
2023-03-25T02:28:28.014Z,69.73
2023-03-25T02:31:07.816Z,69.67
2023-03-25T02:34:16.343Z,69.76
2023-03-25T02:37:14.191Z,69.82
2023-03-25T02:40:15.039Z,69.87
2023-03-25T02:42:58.398Z,69.69
2023-03-25T02:45:38.608Z,69.44
2023-03-25T02:48:21.040Z,69.33
2023-03-25T02:51:00.995Z,69.41
2023-03-25T02:53:39.750Z,69.56
2023-03-25T02:56:18.466Z,69.18
2023-03-25T02:58:52.165Z,69.31
2023-03-25T03:01:25.146Z,68.94
2023-03-25T03:03:58.133Z,69.11
2023-03-25T03:06:29.451Z,68.85
2023-03-25T03:10:03.150Z,69.16
2023-03-25T03:13:05.329Z,68.81
2023-03-25T03:15:55.413Z,68.46
2023-03-25T03:19:01.066Z,68.25
2023-03-25T03:21:53.825Z,68.62
2023-03-25T03:24:47.248Z,68.33
2023-03-25T03:27:26.158Z,68.42
2023-03-25T03:30:05.166Z,68.48
2023-03-25T03:32:45.849Z,68.30
2023-03-25T03:35:40.828Z,68.31
2023-03-25T03:38:17.024Z,67.97
2023-03-25T03:40:54.423Z,68.27
2023-03-25T03:43:45.415Z,68.01
2023-03-25T03:46:25.105Z,67.73
2023-03-25T03:49:01.098Z,68.19
2023-03-25T03:51:40.143Z,67.68
2023-03-25T03:54:39.789Z,67.56
2023-03-25T03:57:23.446Z,67.77
2023-03-25T04:00:21.597Z,67.26
2023-03-25T04:02:58.858Z,67.54
2023-03-25T04:08:31.475Z,67.39
2023-03-25T04:11:10.323Z,66.68
2023-03-25T04:13:46.029Z,66.23
2023-03-25T04:16:16.527Z,66.27
2023-03-25T04:21:36.425Z,65.25
2023-03-25T04:24:10.568Z,64.43
2023-03-25T04:26:41.024Z,64.10
2023-03-25T04:29:12.448Z,64.14
2023-03-25T04:31:48.986Z,63.95
2023-03-25T04:34:37.587Z,63.97
2023-03-25T04:37:08.237Z,64.13
2023-03-25T04:39:38.635Z,63.97
2023-03-25T04:48:33.579Z,63.32
2023-03-25T04:51:06.130Z,63.16
2023-03-25T04:56:22.256Z,62.46
2023-03-25T05:01:44.580Z,62.40
2023-03-25T05:04:16.828Z,62.30
2023-03-25T05:06:53.598Z,62.11
2023-03-25T05:09:27.535Z,62.07
2023-03-25T05:11:58.804Z,62.14
2023-03-25T05:14:28.707Z,62.34
2023-03-25T05:17:01.713Z,62.30
2023-03-25T05:19:32.035Z,62.41
2023-03-25T05:22:04.806Z,62.52
2023-03-25T05:24:35.237Z,62.44
2023-03-25T05:27:06.213Z,62.40
2023-03-25T05:29:36.630Z,62.24
2023-03-25T05:32:07.902Z,62.01
2023-03-25T05:34:38.214Z,62.16
2023-03-25T05:37:08.588Z,61.81
2023-03-25T05:39:40.432Z,61.41
2023-03-25T05:42:13.167Z,61.36
2023-03-25T05:44:53.609Z,61.29
2023-03-25T05:47:26.748Z,61.27
2023-03-25T05:49:57.012Z,61.07
2023-03-25T05:52:28.106Z,61.17
2023-03-25T05:54:58.341Z,61.15
2023-03-25T05:57:46.883Z,61.35
2023-03-25T06:00:23.565Z,60.93
2023-03-25T06:02:54.884Z,60.59
2023-03-25T06:05:25.854Z,60.38
2023-03-25T06:07:58.621Z,60.76
2023-03-25T06:10:29.295Z,60.56
2023-03-25T06:12:59.465Z,60.53
2023-03-25T06:15:35.752Z,60.38
2023-03-25T06:18:07.047Z,60.65
2023-03-25T06:20:37.494Z,60.71
2023-03-25T06:23:10.026Z,60.70
2023-03-25T06:25:58.641Z,60.83
2023-03-25T06:28:29.111Z,60.84
2023-03-25T06:30:59.607Z,60.54
2023-03-25T06:33:43.174Z,60.17
2023-03-25T06:36:16.262Z,60.45
2023-03-25T06:38:46.972Z,60.52
2023-03-25T06:41:22.745Z,59.99
2023-03-25T06:44:00.314Z,60.20
2023-03-25T06:46:44.921Z,60.30
2023-03-25T06:49:33.553Z,60.32
2023-03-25T06:52:04.117Z,60.36
2023-03-25T06:54:34.955Z,60.11
2023-03-25T06:57:05.165Z,59.95
2023-03-25T06:59:35.474Z,60.09
2023-03-25T07:02:05.856Z,59.86
2023-03-25T07:04:36.394Z,59.40
2023-03-25T07:07:06.575Z,59.53
2023-03-25T07:09:36.892Z,59.01
2023-03-25T07:12:09.106Z,58.74
2023-03-25T07:14:39.897Z,58.77
2023-03-25T07:17:10.940Z,58.65
2023-03-25T07:22:26.643Z,58.07
2023-03-25T07:25:15.107Z,58.08
2023-03-25T07:27:45.421Z,58.05
2023-03-25T07:30:20.293Z,57.64
2023-03-25T07:32:50.664Z,57.72
2023-03-25T07:35:39.397Z,58.00
2023-03-25T07:38:09.907Z,57.80
2023-03-25T07:40:40.422Z,57.92
2023-03-25T07:46:05.828Z,57.46
2023-03-25T07:48:55.211Z,56.96
2023-03-25T07:51:25.906Z,56.70
2023-03-25T07:53:56.305Z,56.49
2023-03-25T07:56:35.645Z,56.64
2023-03-25T07:59:24.513Z,56.44
2023-03-25T08:04:40.138Z,56.27
2023-03-25T08:07:10.599Z,56.13
2023-03-25T08:09:40.908Z,56.09
2023-03-25T08:12:12.074Z,56.07
2023-03-25T08:14:41.968Z,55.99
2023-03-25T08:17:12.074Z,55.95
2023-03-25T08:19:42.271Z,56.21
2023-03-25T08:22:13.373Z,56.61
2023-03-25T08:24:44.022Z,56.62
2023-03-25T08:27:32.414Z,56.47
2023-03-25T08:30:20.910Z,55.86
2023-03-25T08:32:56.790Z,55.54
2023-03-25T08:35:27.379Z,54.97
2023-03-25T08:37:57.734Z,54.85
2023-03-25T08:40:28.057Z,55.22
2023-03-25T08:42:58.152Z,55.01
2023-03-25T08:45:28.366Z,55.43
2023-03-25T08:47:58.892Z,55.37
2023-03-25T08:50:29.736Z,55.12
2023-03-25T08:55:46.496Z,54.74
2023-03-25T08:58:16.780Z,54.69
2023-03-25T09:00:48.135Z,54.81
2023-03-25T09:03:18.628Z,54.95
2023-03-25T09:05:50.823Z,55.12
2023-03-25T09:08:21.596Z,54.70
2023-03-25T09:10:52.168Z,54.94
2023-03-25T09:13:22.679Z,54.64
2023-03-25T09:16:12.105Z,55.12
2023-03-25T09:18:42.824Z,54.87
2023-03-25T09:21:13.012Z,54.36
2023-03-25T09:29:33.242Z,54.11
2023-03-25T09:32:03.528Z,53.76
2023-03-25T09:34:34.729Z,53.97
2023-03-25T09:37:05.785Z,53.72
2023-03-25T09:42:31.230Z,53.78
2023-03-25T09:45:23.415Z,53.51
2023-03-25T09:48:09.213Z,53.09
2023-03-25T09:50:40.377Z,52.49
2023-03-25T09:53:17.149Z,52.51
2023-03-25T09:55:49.477Z,52.57
2023-03-25T09:58:44.385Z,52.62
2023-03-25T10:01:51.470Z,53.40
2023-03-25T10:04:49.878Z,53.56
2023-03-25T10:07:45.951Z,54.17
2023-03-25T10:11:12.639Z,53.42
2023-03-25T10:13:45.797Z,53.69
2023-03-25T10:20:12.106Z,54.15
2023-03-25T10:23:11.456Z,54.48
2023-03-25T10:25:45.778Z,54.70
2023-03-25T10:28:21.979Z,54.98
2023-03-25T10:30:56.536Z,55.42
2023-03-25T10:33:41.711Z,55.42
2023-03-25T10:36:21.614Z,55.41
2023-03-25T10:39:22.179Z,55.66
2023-03-25T10:42:02.795Z,55.85
2023-03-25T10:44:33.534Z,56.10
2023-03-25T10:47:15.602Z,56.36
2023-03-25T10:49:47.623Z,56.75
2023-03-25T10:52:36.040Z,56.44
2023-03-25T10:55:06.603Z,56.40
2023-03-25T10:57:37.466Z,56.27
2023-03-25T11:00:08.932Z,56.68
2023-03-25T11:02:40.056Z,56.52
2023-03-25T11:08:11.922Z,56.37
2023-03-25T11:10:59.871Z,55.88
2023-03-25T11:13:32.097Z,56.46
2023-03-25T11:16:05.965Z,56.17
2023-03-25T11:18:41.103Z,56.49
2023-03-25T11:21:18.291Z,56.45
2023-03-25T11:23:52.415Z,56.52
2023-03-25T11:26:26.712Z,56.65
2023-03-25T11:29:05.125Z,56.44
2023-03-25T11:31:41.154Z,56.88
2023-03-25T11:34:25.699Z,57.19
2023-03-25T11:37:02.184Z,57.30
2023-03-25T11:39:37.623Z,57.09
2023-03-25T11:42:18.640Z,56.84
2023-03-25T11:47:44.460Z,56.77
2023-03-25T11:50:25.377Z,57.26
2023-03-25T11:53:03.121Z,57.10
2023-03-25T11:55:48.486Z,57.26
2023-03-25T11:58:23.858Z,57.56
2023-03-25T12:01:03.398Z,57.87
2023-03-25T12:03:37.472Z,57.82
2023-03-25T12:06:09.617Z,57.92
2023-03-25T12:08:55.307Z,57.99
2023-03-25T12:11:52.814Z,57.93
2023-03-25T12:14:38.646Z,58.36
2023-03-25T12:17:18.199Z,58.84
2023-03-25T12:20:00.375Z,58.84
2023-03-25T12:22:42.778Z,58.92
2023-03-25T12:25:29.457Z,58.70
2023-03-25T12:28:25.615Z,58.74
2023-03-25T12:31:02.212Z,58.74
2023-03-25T12:33:35.423Z,59.21
2023-03-25T12:36:20.436Z,61.01
2023-03-25T12:39:02.805Z,62.17
2023-03-25T12:42:09.969Z,62.96
2023-03-25T12:45:14.235Z,63.23
2023-03-25T12:48:25.800Z,62.91
2023-03-25T12:51:16.902Z,62.80
2023-03-25T12:53:59.257Z,62.38
2023-03-25T12:56:36.753Z,61.90
2023-03-25T12:59:28.409Z,61.76
2023-03-25T13:02:23.305Z,61.86
2023-03-25T13:05:18.338Z,61.76
2023-03-25T13:10:46.253Z,62.69
2023-03-25T13:13:28.524Z,63.00
2023-03-25T13:16:12.397Z,63.13
2023-03-25T13:19:12.081Z,63.38
2023-03-25T13:21:47.665Z,63.85
2023-03-25T13:24:40.993Z,63.97
2023-03-25T13:27:19.551Z,64.36
2023-03-25T13:30:39.914Z,64.89
2023-03-25T13:33:19.899Z,64.88
2023-03-25T13:36:00.418Z,64.98
2023-03-25T13:38:52.023Z,65.68
2023-03-25T13:41:43.713Z,65.30
2023-03-25T13:44:22.818Z,65.07
2023-03-25T13:46:55.676Z,65.16
2023-03-25T13:49:45.786Z,65.38
2023-03-25T13:52:41.947Z,65.69
2023-03-25T13:55:25.442Z,65.68
2023-03-25T13:58:27.059Z,65.39
2023-03-25T14:01:35.603Z,65.39
2023-03-25T14:04:15.421Z,65.36
2023-03-25T14:07:39.856Z,65.88
2023-03-25T14:10:52.450Z,65.70
2023-03-25T14:13:47.922Z,65.72
2023-03-25T14:16:22.001Z,65.77
2023-03-25T14:19:01.125Z,65.31
2023-03-25T14:21:45.073Z,65.21
2023-03-25T14:24:51.889Z,65.00
2023-03-25T14:27:39.894Z,65.21
2023-03-25T14:30:24.604Z,65.36
2023-03-25T14:32:58.840Z,65.72
2023-03-25T14:35:35.513Z,66.23
2023-03-25T14:38:11.708Z,65.62
2023-03-25T14:41:03.507Z,65.60
2023-03-25T14:43:48.915Z,65.62
2023-03-25T14:46:24.166Z,65.48
2023-03-25T14:48:57.026Z,65.73
2023-03-25T14:51:30.779Z,65.35
2023-03-25T14:54:05.978Z,65.45
2023-03-25T14:56:39.652Z,65.83
2023-03-25T14:59:19.781Z,65.70
2023-03-25T15:01:50.846Z,65.61
2023-03-25T15:04:31.858Z,65.60
2023-03-25T15:07:05.242Z,65.49
2023-03-25T15:09:35.744Z,65.80
2023-03-25T15:12:08.131Z,65.74
2023-03-25T15:14:43.038Z,65.76
2023-03-25T15:17:51.561Z,65.46
2023-03-25T15:20:24.875Z,65.52
2023-03-25T15:23:22.796Z,65.15
2023-03-25T15:25:57.081Z,65.09
2023-03-25T15:28:46.244Z,65.05
2023-03-25T15:32:08.786Z,65.04
2023-03-25T15:34:48.045Z,65.19
2023-03-25T15:37:49.274Z,65.16
2023-03-25T15:40:41.819Z,65.02
2023-03-25T15:43:36.245Z,65.58
2023-03-25T15:46:35.662Z,65.26
2023-03-25T15:49:43.974Z,65.49
2023-03-25T15:52:51.196Z,65.49
2023-03-25T15:55:43.975Z,65.40
2023-03-25T15:58:53.584Z,65.47
2023-03-25T16:01:32.461Z,65.41
2023-03-25T16:04:47.755Z,65.11
2023-03-25T16:07:22.304Z,65.39
2023-03-25T16:09:53.772Z,65.39
2023-03-25T16:15:35.125Z,65.64
2023-03-25T16:18:09.137Z,65.72
2023-03-25T16:20:40.547Z,65.90
2023-03-25T16:23:19.520Z,66.01
2023-03-25T16:25:53.984Z,65.84
2023-03-25T16:28:48.672Z,66.25
2023-03-25T16:31:37.461Z,65.97
2023-03-25T16:34:16.544Z,66.04
2023-03-25T16:36:49.068Z,66.09
2023-03-25T16:39:20.804Z,66.06
2023-03-25T16:42:02.116Z,66.27
2023-03-25T16:44:32.217Z,66.35
2023-03-25T16:47:04.553Z,66.25
2023-03-25T16:49:40.338Z,66.26
2023-03-25T16:52:18.143Z,66.26
2023-03-25T16:55:17.684Z,66.18
2023-03-25T16:57:49.091Z,66.11
2023-03-25T17:00:45.661Z,66.18
2023-03-25T17:03:19.981Z,66.17
2023-03-25T17:05:57.130Z,66.18
2023-03-25T17:08:27.656Z,66.33
2023-03-25T17:11:01.862Z,66.30
2023-03-25T17:13:44.234Z,66.26
2023-03-25T17:16:38.435Z,66.21
2023-03-25T17:19:08.857Z,66.35
2023-03-25T17:21:40.744Z,66.52
2023-03-25T17:24:25.351Z,66.28
2023-03-25T17:27:07.790Z,66.42
2023-03-25T17:30:17.002Z,66.52
2023-03-25T17:32:48.103Z,66.49
2023-03-25T17:35:26.471Z,66.30
2023-03-25T17:37:57.250Z,66.53
2023-03-25T17:40:29.188Z,66.26
2023-03-25T17:43:00.411Z,66.42
2023-03-25T17:45:30.742Z,66.50
2023-03-25T17:48:01.001Z,66.01
2023-03-25T17:50:31.318Z,66.04
2023-03-25T17:53:01.983Z,65.95
2023-03-25T17:55:51.338Z,65.95
2023-03-25T17:58:39.776Z,65.79
2023-03-25T18:01:11.145Z,65.90
2023-03-25T18:03:43.516Z,66.04
2023-03-25T18:06:15.311Z,65.94
2023-03-25T18:08:45.602Z,65.75
2023-03-25T18:11:16.356Z,65.84
2023-03-25T18:14:05.043Z,66.04
2023-03-25T18:16:35.619Z,65.86
2023-03-25T18:19:06.485Z,65.92
2023-03-25T18:21:36.845Z,66.07
2023-03-25T18:24:07.053Z,65.84
2023-03-25T18:26:37.741Z,65.76
2023-03-25T18:29:20.441Z,65.81
2023-03-25T18:31:51.098Z,65.92
2023-03-25T18:34:39.623Z,66.03
2023-03-25T18:37:28.080Z,65.84
2023-03-25T18:39:58.433Z,65.89
2023-03-25T18:42:28.938Z,66.10
2023-03-25T18:44:59.168Z,65.85
2023-03-25T18:47:29.671Z,65.90
2023-03-25T18:50:00.245Z,66.11
2023-03-25T18:52:30.664Z,66.15
2023-03-25T18:55:00.807Z,66.04
2023-03-25T18:57:31.118Z,66.27
2023-03-25T19:00:04.454Z,66.17
2023-03-25T19:02:34.999Z,65.98
2023-03-25T19:05:05.483Z,65.95
2023-03-25T19:07:36.754Z,66.15
2023-03-25T19:10:07.489Z,66.14
2023-03-25T19:12:38.209Z,66.10
2023-03-25T19:15:09.161Z,66.23
2023-03-25T19:17:39.586Z,65.83
2023-03-25T19:22:56.875Z,66.32
2023-03-25T19:25:27.408Z,66.16
2023-03-25T19:28:00.796Z,66.26
2023-03-25T19:30:31.919Z,66.06
2023-03-25T19:33:04.257Z,66.21
2023-03-25T19:36:00.431Z,66.65
2023-03-25T19:38:31.056Z,66.45
2023-03-25T19:41:10.408Z,66.61
2023-03-25T19:43:40.883Z,66.49
2023-03-25T19:46:31.653Z,66.38
2023-03-25T19:49:01.786Z,66.41
2023-03-25T19:51:31.773Z,66.64
2023-03-25T19:54:01.975Z,66.28
2023-03-25T19:56:33.294Z,66.54
2023-03-25T19:59:02.954Z,66.65
2023-03-25T20:01:51.967Z,66.44
2023-03-25T20:04:22.118Z,66.71
2023-03-25T20:06:52.356Z,66.48
2023-03-25T20:09:22.764Z,66.84
2023-03-25T20:11:53.102Z,66.74
2023-03-25T20:14:41.701Z,66.93
2023-03-25T20:17:11.982Z,66.74
2023-03-25T20:19:42.314Z,66.80
2023-03-25T20:24:48.918Z,66.99
2023-03-25T20:27:20.137Z,66.90
2023-03-25T20:29:50.301Z,66.99
2023-03-25T20:32:21.640Z,66.94
2023-03-25T20:34:52.298Z,66.86
2023-03-25T20:37:22.727Z,66.87
2023-03-25T20:39:52.851Z,67.07
2023-03-25T20:42:24.077Z,66.83
2023-03-25T20:44:54.203Z,66.93
2023-03-25T20:47:24.394Z,66.93
2023-03-25T20:49:54.980Z,67.13
2023-03-25T20:52:25.353Z,67.27
2023-03-25T20:54:56.459Z,67.01
2023-03-25T20:57:26.792Z,67.27
2023-03-25T21:00:16.835Z,67.14
2023-03-25T21:05:18.455Z,67.11
2023-03-25T21:07:50.213Z,66.83
2023-03-25T21:10:20.694Z,66.90
2023-03-25T21:13:09.259Z,66.93
2023-03-25T21:15:59.791Z,66.98
2023-03-25T21:18:31.564Z,67.25
2023-03-25T21:21:03.791Z,66.84
2023-03-25T21:23:52.469Z,67.02
2023-03-25T21:26:24.351Z,67.17
2023-03-25T21:28:55.340Z,66.89
2023-03-25T21:31:26.371Z,67.10
2023-03-25T21:33:58.619Z,67.25
2023-03-25T21:36:31.277Z,66.85
2023-03-25T21:39:19.685Z,67.07
2023-03-25T21:41:49.759Z,67.30
2023-03-25T21:44:19.885Z,67.02
2023-03-25T21:49:36.752Z,66.99
2023-03-25T21:52:28.730Z,67.27
2023-03-25T21:55:18.682Z,67.40
2023-03-25T21:57:49.895Z,67.23
2023-03-25T22:00:24.692Z,67.46
2023-03-25T22:03:00.816Z,67.34
2023-03-25T22:05:49.285Z,67.54
2023-03-25T22:08:19.541Z,67.54
2023-03-25T22:10:49.575Z,67.43
2023-03-25T22:13:20.085Z,67.10
2023-03-25T22:15:50.405Z,67.28
2023-03-25T22:18:21.572Z,67.28
2023-03-25T22:20:52.474Z,67.31
2023-03-25T22:23:24.316Z,67.41
2023-03-25T22:26:13.653Z,67.12
2023-03-25T22:28:44.507Z,67.34
2023-03-25T22:31:17.389Z,67.43
2023-03-25T22:39:38.347Z,67.03
2023-03-25T22:42:09.303Z,67.33
2023-03-25T22:44:39.588Z,67.27
2023-03-25T22:47:09.695Z,67.53
2023-03-25T22:49:43.243Z,67.68
2023-03-25T22:52:14.588Z,67.71
2023-03-25T22:54:45.190Z,67.73
2023-03-25T22:57:15.942Z,67.60
2023-03-25T22:59:46.107Z,67.56
2023-03-25T23:02:17.855Z,67.65
2023-03-25T23:04:48.693Z,67.77
2023-03-25T23:07:19.370Z,67.63
2023-03-25T23:09:49.934Z,67.87
2023-03-25T23:12:26.285Z,67.95
2023-03-25T23:14:58.488Z,67.79
2023-03-25T23:17:29.179Z,67.83
2023-03-25T23:20:18.877Z,67.64
2023-03-25T23:22:49.047Z,67.80
2023-03-25T23:25:21.201Z,67.77
2023-03-25T23:27:52.835Z,67.81
2023-03-25T23:30:23.298Z,67.89
2023-03-25T23:32:54.563Z,67.71
2023-03-25T23:35:27.900Z,67.96
2023-03-25T23:37:59.160Z,67.84
2023-03-25T23:40:29.452Z,68.00
2023-03-25T23:45:45.674Z,67.94
2023-03-25T23:48:17.094Z,68.30
2023-03-25T23:50:50.323Z,68.48
2023-03-25T23:53:21.277Z,68.36
2023-03-25T23:55:55.523Z,68.30
2023-03-25T23:58:26.010Z,68.84
